Details From LDZA - Zagreb
To LDSP - Split
Flight Number -
Tags Generated
Created
Modified
Stats Distance 132 nm / 245 km
Max Altitude 0 ft / 0 m
Waypoints 2
Social Downloads 2
Likes 0
Share VATSIM

Download

Looking for another format? Having issues loading an existing format? Contact us
Advertisement - Login to hide

Notes

Generated

Route

LDZA LDSP

ID Type Via Altitude Latitude Longitude Leg Dist Tot Dist Heading (true) Name
O LDZA APT - 0 ft / 0 m 45.73188˚ 16.05197˚ - 0 nm - -
O LDSP APT - 0 ft / 0 m 43.53205˚ 16.28558˚ 132 nm 132 nm 176° / 176° -

Altitude Profile

Advertisement - Login to hide

LDZA

Details ICAO LDZA (ZAG)
Name Zagreb
Region Croatia
Timezone Europe/Zagreb (UTC+1.0)
Stats Elevation 353 ft / 108 m (AMSL)
Location 45.741890° 16.067200°
Runways 1
Magnetic Variation 3.958° E

METAR

LDZA 121000Z 20018KT 150V230 9999 FEW047 17/07 Q1006 TEMPO 19020G30KT

Decode

TAF

TAF LDZA 120525Z 1206/1306 23015KT 9999 BKN035 TX16/1212Z TN02/1305Z TEMPO 1206/1210 23020G30KT PROB40 TEMPO 1210/1306 4000 RA BKN010 OVC030 BECMG 1212/1214 26008KT BECMG 1218/1220 VRB02KT BECMG 1304/1306 03012KT PROB30 TEMPO 1304/1306 RASN

Decode

Departure Runways

ID Width Length Bearing (true) Bearing (mag) Surface Threshold Offset Overrun Length
05 148 ft / 45 m 10,659 ft / 3,249 m 46.69° 42.73° Asphalt 0 ft / 0 m 195 ft / 59 m
23 148 ft / 45 m 10,659 ft / 3,249 m 226.71° 222.75° Asphalt 0 ft / 0 m 195 ft / 59 m

LDSP

Details ICAO LDSP (SPU)
Name SPLIT
Region Croatia
Timezone Europe/Zagreb (UTC+1.0)
Stats Elevation 79 ft / 24 m (AMSL)
Location 43.539026° 16.298112°
Runways 1
Magnetic Variation 3.836° E

METAR

LDSP 121000Z 12011KT 090V150 9999 FEW020 SCT056 16/12 Q1014 NOSIG

Decode

TAF

TAF LDSP 120525Z 1206/1306 14015KT 9999 BKN040 TX17/1212Z TN10/1305Z PROB40 TEMPO 1206/1215 14015G25KT TEMPO 1223/1306 RA PROB40 TEMPO 1223/1306 23010KT 4000 SHRA SCT030TCU BKN035

Decode

Destination Runways

ID Width Length Bearing (true) Bearing (mag) Surface Threshold Offset Overrun Length
05 148 ft / 45 m 8,357 ft / 2,547 m 52.48° 48.64° Asphalt 0 ft / 0 m 76 ft / 23 m
23 148 ft / 45 m 8,357 ft / 2,547 m 232.50° 228.66° Asphalt 525 ft / 160 m 820 ft / 250 m

Approach Navaids

Runway Type Ident Frequency Range Bearing (true) Bearing (mag) Slope Elevation
05 Localiser IST 110.50 MHz 25 nm / 46 km 52.57° 48.73° - 69 ft / 21 m (AMSL)
05 Glidescope IST 110.50 MHz 25 nm / 46 km 52.57° 48.73° 3.00° 52 ft / 16 m (AMSL)

Popular Alternatives